createdAt,value
2023-10-21T00:02:21.332Z,24.10
2023-10-21T00:04:48.789Z,24.10
2023-10-21T00:07:15.982Z,24.10
2023-10-21T00:09:43.581Z,24.20
2023-10-21T00:12:10.877Z,24.30
2023-10-21T00:14:38.228Z,24.30
2023-10-21T00:17:05.903Z,24.30
2023-10-21T00:19:33.384Z,24.30
2023-10-21T00:22:01.028Z,24.30
2023-10-21T00:24:28.317Z,24.30
2023-10-21T00:26:56.002Z,24.30
2023-10-21T00:29:23.439Z,24.30
2023-10-21T00:31:50.816Z,24.30
2023-10-21T00:34:18.450Z,24.40
2023-10-21T00:36:45.685Z,24.40
2023-10-21T00:39:13.113Z,24.50
2023-10-21T00:41:40.949Z,24.40
2023-10-21T00:44:08.574Z,24.40
2023-10-21T00:46:36.091Z,24.30
2023-10-21T00:49:05.671Z,24.30
2023-10-21T00:51:34.098Z,24.40
2023-10-21T00:54:02.560Z,24.50
2023-10-21T00:56:30.130Z,24.50
2023-10-21T00:58:57.766Z,24.50
2023-10-21T01:01:25.280Z,24.60
2023-10-21T01:03:53.087Z,24.60
2023-10-21T01:06:21.149Z,24.70
2023-10-21T01:08:48.491Z,24.60
2023-10-21T01:11:15.872Z,24.70
2023-10-21T01:13:45.962Z,24.70
2023-10-21T01:16:13.465Z,24.70
2023-10-21T01:18:41.607Z,24.70
2023-10-21T01:21:09.411Z,24.70
2023-10-21T01:23:39.804Z,24.70
2023-10-21T01:26:07.563Z,24.70
2023-10-21T01:28:35.238Z,24.70
2023-10-21T01:31:02.768Z,24.70
2023-10-21T01:33:30.305Z,24.60
2023-10-21T01:35:57.945Z,24.70
2023-10-21T01:38:26.171Z,24.70
2023-10-21T01:40:54.148Z,24.60
2023-10-21T01:43:21.895Z,24.70
2023-10-21T01:45:49.220Z,24.70
2023-10-21T01:48:16.697Z,24.70
2023-10-21T01:50:44.790Z,24.70
2023-10-21T01:53:12.890Z,24.70
2023-10-21T01:55:41.392Z,24.70
2023-10-21T01:58:08.603Z,24.60
2023-10-21T02:00:35.942Z,24.60
2023-10-21T02:03:04.342Z,24.70
2023-10-21T02:05:31.931Z,24.70
2023-10-21T02:07:59.201Z,24.80
2023-10-21T02:10:26.674Z,24.80
2023-10-21T02:12:54.268Z,24.80
2023-10-21T02:15:22.158Z,24.80
2023-10-21T02:17:50.384Z,24.90
2023-10-21T02:20:17.573Z,25.00
2023-10-21T02:22:44.953Z,25.10
2023-10-21T02:25:15.480Z,25.20
2023-10-21T02:27:44.345Z,25.30
2023-10-21T02:30:15.861Z,25.20
2023-10-21T02:32:49.418Z,25.20
2023-10-21T02:35:17.016Z,25.20
2023-10-21T02:37:46.897Z,25.30
2023-10-21T02:40:17.209Z,25.20
2023-10-21T02:42:48.893Z,25.20
2023-10-21T02:45:16.636Z,25.10
2023-10-21T02:47:43.989Z,25.20
2023-10-21T02:50:11.509Z,25.30
2023-10-21T02:52:39.467Z,25.20
2023-10-21T02:55:08.016Z,25.20
2023-10-21T02:57:36.260Z,25.20
2023-10-21T03:00:07.191Z,25.20
2023-10-21T03:02:35.343Z,25.10
2023-10-21T03:05:02.959Z,25.10
2023-10-21T03:07:32.442Z,25.00
2023-10-21T03:10:00.120Z,24.90
2023-10-21T03:12:28.302Z,24.90
2023-10-21T03:14:57.115Z,24.90
2023-10-21T03:17:24.329Z,24.90
2023-10-21T03:19:51.601Z,24.90
2023-10-21T03:22:19.561Z,24.90
2023-10-21T03:24:46.955Z,24.90
2023-10-21T03:27:14.809Z,25.00
2023-10-21T03:29:42.255Z,25.00
2023-10-21T03:32:11.063Z,25.10
2023-10-21T03:34:58.397Z,25.10
2023-10-21T03:37:25.575Z,25.10
2023-10-21T03:39:52.922Z,25.10
2023-10-21T03:42:22.306Z,25.00
2023-10-21T03:44:49.775Z,25.00
2023-10-21T03:47:19.332Z,25.00
2023-10-21T03:49:46.516Z,25.00
2023-10-21T03:52:13.737Z,24.90
2023-10-21T03:54:40.992Z,25.00
2023-10-21T03:57:08.240Z,25.00
2023-10-21T03:59:35.446Z,25.00
2023-10-21T04:02:02.647Z,25.10
2023-10-21T04:04:29.846Z,25.10
2023-10-21T04:06:57.088Z,25.10
2023-10-21T04:09:25.009Z,25.20
2023-10-21T04:12:28.317Z,25.20
2023-10-21T04:14:53.868Z,25.20
2023-10-21T04:17:22.170Z,25.20
2023-10-21T04:19:49.348Z,25.20
2023-10-21T04:22:16.586Z,25.10
2023-10-21T04:24:43.841Z,25.10
2023-10-21T04:27:11.096Z,25.10
2023-10-21T04:29:38.326Z,25.10
2023-10-21T04:32:05.541Z,25.20
2023-10-21T04:34:33.556Z,25.10
2023-10-21T04:37:00.869Z,25.10
2023-10-21T04:39:29.981Z,25.10
2023-10-21T04:41:57.486Z,25.20
2023-10-21T04:44:25.378Z,25.10
2023-10-21T04:46:52.693Z,25.20
2023-10-21T04:49:19.909Z,25.20
2023-10-21T04:51:47.056Z,25.20
2023-10-21T04:54:14.293Z,25.30
2023-10-21T04:56:41.638Z,25.20
2023-10-21T04:59:08.848Z,25.30
2023-10-21T05:01:36.511Z,25.30
2023-10-21T05:04:04.045Z,25.30
2023-10-21T05:06:31.397Z,25.40
2023-10-21T05:08:59.509Z,25.40
2023-10-21T05:11:26.703Z,25.40
2023-10-21T05:13:53.888Z,25.40
2023-10-21T05:16:21.440Z,25.40
2023-10-21T05:18:49.211Z,25.40
2023-10-21T05:21:16.585Z,25.40
2023-10-21T05:23:43.833Z,25.40
2023-10-21T05:26:11.317Z,25.50
2023-10-21T05:28:38.648Z,25.40
2023-10-21T05:31:05.897Z,25.40
2023-10-21T05:33:33.376Z,25.50
2023-10-21T05:36:01.240Z,25.40
2023-10-21T05:38:28.713Z,25.50
2023-10-21T05:40:58.597Z,25.50
2023-10-21T05:43:25.960Z,25.50
2023-10-21T05:45:53.134Z,25.50
2023-10-21T05:48:20.707Z,25.50
2023-10-21T05:50:48.592Z,25.40
2023-10-21T05:53:15.928Z,25.50
2023-10-21T05:55:44.613Z,25.40
2023-10-21T05:58:12.337Z,25.40
2023-10-21T06:00:39.822Z,25.40
2023-10-21T06:03:07.194Z,25.40
2023-10-21T06:05:34.562Z,25.40
2023-10-21T06:08:01.928Z,25.40
2023-10-21T06:10:30.024Z,25.30
2023-10-21T06:12:57.460Z,25.30
2023-10-21T06:15:24.882Z,25.30
2023-10-21T06:17:52.486Z,25.30
2023-10-21T06:20:21.155Z,25.30
2023-10-21T06:22:50.236Z,25.30
2023-10-21T06:25:18.011Z,25.30
2023-10-21T06:27:45.153Z,25.30
2023-10-21T06:30:13.609Z,25.30
2023-10-21T06:32:40.799Z,25.30
2023-10-21T06:35:08.340Z,25.20
2023-10-21T06:37:36.623Z,25.30
2023-10-21T06:40:05.917Z,25.30
2023-10-21T06:42:34.365Z,25.30
2023-10-21T06:45:03.767Z,25.30
2023-10-21T06:47:34.502Z,25.20
2023-10-21T06:50:02.684Z,25.30
2023-10-21T06:52:32.744Z,25.20
2023-10-21T06:55:00.082Z,25.30
2023-10-21T06:57:28.627Z,25.30
2023-10-21T06:59:57.225Z,25.20
2023-10-21T07:02:24.488Z,25.20
2023-10-21T07:04:51.769Z,25.20
2023-10-21T07:07:19.028Z,25.20
2023-10-21T07:09:46.458Z,25.30
2023-10-21T07:12:14.275Z,25.30
2023-10-21T07:14:41.552Z,25.30
2023-10-21T07:17:09.644Z,25.30
2023-10-21T07:19:37.008Z,25.30
2023-10-21T07:22:05.540Z,25.30
2023-10-21T07:24:33.870Z,25.30
2023-10-21T07:27:02.702Z,25.20
2023-10-21T07:29:29.940Z,25.20
2023-10-21T07:31:57.221Z,25.10
2023-10-21T07:34:24.465Z,25.10
2023-10-21T07:36:51.750Z,25.10
2023-10-21T07:39:19.774Z,25.10
2023-10-21T07:41:47.018Z,25.10
2023-10-21T07:44:16.492Z,25.10
2023-10-21T07:46:46.000Z,25.10
2023-10-21T07:49:13.843Z,25.10
2023-10-21T07:51:41.792Z,25.10
2023-10-21T07:54:09.081Z,25.10
2023-10-21T07:56:36.338Z,25.20
2023-10-21T07:59:03.666Z,25.10
2023-10-21T08:01:30.915Z,25.10
2023-10-21T08:03:58.332Z,25.10
2023-10-21T08:06:26.484Z,25.10
2023-10-21T08:08:53.770Z,25.10
2023-10-21T08:11:22.170Z,25.10
2023-10-21T08:13:49.508Z,25.10
2023-10-21T08:16:17.041Z,25.10
2023-10-21T08:18:44.781Z,25.10
2023-10-21T08:21:14.038Z,25.10
2023-10-21T08:23:42.377Z,25.00
2023-10-21T08:26:12.655Z,25.10
2023-10-21T08:28:39.950Z,25.10
2023-10-21T08:31:09.500Z,25.00
2023-10-21T08:33:37.093Z,25.10
2023-10-21T08:36:04.700Z,25.00
2023-10-21T08:38:31.911Z,25.00
2023-10-21T08:40:59.539Z,25.10
2023-10-21T08:43:26.872Z,25.10
2023-10-21T08:45:54.249Z,25.10
2023-10-21T08:48:21.997Z,25.10
2023-10-21T08:50:51.382Z,25.10
2023-10-21T08:53:19.026Z,25.10
2023-10-21T08:55:49.869Z,25.00
2023-10-21T08:58:17.313Z,25.00
2023-10-21T09:00:45.497Z,25.00
2023-10-21T09:03:14.568Z,25.00
2023-10-21T09:06:12.827Z,25.00
2023-10-21T09:08:42.617Z,25.00
2023-10-21T09:11:14.541Z,24.90
2023-10-21T09:13:43.147Z,24.90
2023-10-21T09:16:33.143Z,24.90
2023-10-21T09:19:06.422Z,24.90
2023-10-21T09:21:42.316Z,24.90
2023-10-21T09:24:27.554Z,24.90
2023-10-21T09:26:55.726Z,24.80
2023-10-21T09:29:23.690Z,24.90
2023-10-21T09:31:55.643Z,24.90
2023-10-21T09:34:31.030Z,24.90
2023-10-21T09:37:03.782Z,24.90
2023-10-21T09:39:38.380Z,24.90
2023-10-21T09:42:07.475Z,24.90
2023-10-21T09:44:39.685Z,25.00
2023-10-21T09:47:09.425Z,25.00
2023-10-21T09:49:41.280Z,25.00
2023-10-21T09:52:15.384Z,25.00
2023-10-21T09:55:08.869Z,25.00
2023-10-21T09:57:41.618Z,25.10
2023-10-21T10:00:09.986Z,25.20
2023-10-21T10:02:37.639Z,25.30
2023-10-21T10:05:11.167Z,25.30
2023-10-21T10:07:42.039Z,25.30
2023-10-21T10:10:14.369Z,25.40
2023-10-21T10:12:50.747Z,25.40
2023-10-21T10:15:41.126Z,25.40
2023-10-21T10:18:10.661Z,25.40
2023-10-21T10:20:50.186Z,25.40
2023-10-21T10:23:19.895Z,25.40
2023-10-21T10:25:55.774Z,25.30
2023-10-21T10:28:29.186Z,25.30
2023-10-21T10:30:58.493Z,25.30
2023-10-21T10:33:32.627Z,25.30
2023-10-21T10:36:07.857Z,25.40
2023-10-21T10:38:46.087Z,25.40
2023-10-21T10:41:17.588Z,25.50
2023-10-21T10:44:03.116Z,25.50
2023-10-21T10:46:32.417Z,25.60
2023-10-21T10:49:06.793Z,25.70
2023-10-21T10:51:44.616Z,25.70
2023-10-21T10:54:18.562Z,25.80
2023-10-21T10:56:47.782Z,25.80
2023-10-21T10:59:24.058Z,25.80
2023-10-21T11:01:58.874Z,25.80
2023-10-21T11:04:31.457Z,25.80
2023-10-21T11:06:58.984Z,25.80
2023-10-21T11:09:32.260Z,25.80
2023-10-21T11:12:09.901Z,25.70
2023-10-21T11:14:39.862Z,25.60
2023-10-21T11:17:07.477Z,25.60
2023-10-21T11:19:34.936Z,25.60
2023-10-21T11:22:09.211Z,25.50
2023-10-21T11:24:37.450Z,25.50
2023-10-21T11:27:07.299Z,25.50
2023-10-21T11:29:36.010Z,25.50
2023-10-21T11:32:15.031Z,25.50
2023-10-21T11:34:46.103Z,25.50
2023-10-21T11:37:13.629Z,25.50
2023-10-21T11:39:41.859Z,25.50
2023-10-21T11:42:19.178Z,25.50
2023-10-21T11:44:59.501Z,25.50
2023-10-21T11:47:31.648Z,25.40
2023-10-21T11:49:59.913Z,25.50
2023-10-21T11:52:28.883Z,25.50
2023-10-21T11:55:11.657Z,25.50
2023-10-21T11:57:58.112Z,25.40
2023-10-21T12:00:47.253Z,25.40
2023-10-21T12:03:33.227Z,25.40
2023-10-21T12:06:15.528Z,25.40
2023-10-21T12:09:06.754Z,25.30
2023-10-21T12:12:08.996Z,25.30
2023-10-21T12:14:57.102Z,25.30
2023-10-21T12:17:24.593Z,25.30
2023-10-21T12:20:11.260Z,25.30
2023-10-21T12:22:38.902Z,25.30
2023-10-21T12:25:25.211Z,25.20
2023-10-21T12:28:11.158Z,25.20
2023-10-21T12:30:45.983Z,25.20
2023-10-21T12:33:27.449Z,25.20
2023-10-21T12:36:13.449Z,25.20
2023-10-21T12:38:41.974Z,25.20
2023-10-21T12:41:28.035Z,25.20
2023-10-21T12:44:01.867Z,25.20
2023-10-21T12:46:32.631Z,25.20
2023-10-21T12:49:14.337Z,25.20
2023-10-21T12:51:46.660Z,25.20
2023-10-21T12:54:15.257Z,25.20
2023-10-21T12:56:43.246Z,25.20
2023-10-21T12:59:10.601Z,25.20
2023-10-21T13:01:39.875Z,25.20
2023-10-21T13:04:11.585Z,25.30
2023-10-21T13:06:39.613Z,25.30
2023-10-21T13:09:22.826Z,25.20
2023-10-21T13:11:52.156Z,25.20
2023-10-21T13:14:20.929Z,25.20
2023-10-21T13:16:53.589Z,25.20
2023-10-21T13:19:24.137Z,25.20
2023-10-21T13:21:54.495Z,25.10
2023-10-21T13:24:22.141Z,25.10
2023-10-21T13:26:49.451Z,25.10
2023-10-21T13:29:16.822Z,25.10
2023-10-21T13:31:44.413Z,25.10
2023-10-21T13:34:11.781Z,25.10
2023-10-21T13:36:39.068Z,25.10
2023-10-21T13:39:16.567Z,25.10
2023-10-21T13:41:44.042Z,25.10
2023-10-21T13:44:11.737Z,25.10
2023-10-21T13:46:38.959Z,25.10
2023-10-21T13:49:13.165Z,25.10
2023-10-21T13:51:40.842Z,25.00
2023-10-21T13:54:11.598Z,25.00
2023-10-21T13:56:39.288Z,25.00
2023-10-21T13:59:17.171Z,25.00
2023-10-21T14:01:44.931Z,25.00
2023-10-21T14:04:14.419Z,25.00
2023-10-21T14:06:42.492Z,25.00
2023-10-21T14:09:24.353Z,24.90
2023-10-21T14:11:52.964Z,24.90
2023-10-21T14:14:20.334Z,24.90
2023-10-21T14:16:47.664Z,24.90
2023-10-21T14:19:18.280Z,24.90
2023-10-21T14:21:46.298Z,24.90
2023-10-21T14:24:14.806Z,24.90
2023-10-21T14:26:42.233Z,24.90
2023-10-21T14:29:09.419Z,24.90
2023-10-21T14:31:37.140Z,24.80
2023-10-21T14:34:04.894Z,24.90
2023-10-21T14:36:32.326Z,24.80
2023-10-21T14:38:59.830Z,24.80
2023-10-21T14:41:27.114Z,24.80
2023-10-21T14:44:12.519Z,24.80
2023-10-21T14:46:40.248Z,24.70
2023-10-21T14:49:09.008Z,24.70
2023-10-21T14:51:36.595Z,24.80
2023-10-21T14:54:07.339Z,24.70
2023-10-21T14:56:34.524Z,24.70
2023-10-21T14:59:01.788Z,24.70
2023-10-21T15:01:29.085Z,24.70
2023-10-21T15:03:56.499Z,24.70
2023-10-21T15:06:23.818Z,24.70
2023-10-21T15:08:51.153Z,24.70
2023-10-21T15:11:18.477Z,24.70
2023-10-21T15:13:45.704Z,24.70
2023-10-21T15:16:13.108Z,24.70
2023-10-21T15:18:40.458Z,24.70
2023-10-21T15:21:08.893Z,24.70
2023-10-21T15:23:39.938Z,24.70
2023-10-21T15:26:14.863Z,24.70
2023-10-21T15:28:45.868Z,24.70
2023-10-21T15:31:13.452Z,24.60
2023-10-21T15:33:41.441Z,24.60
2023-10-21T15:36:09.894Z,24.60
2023-10-21T15:38:37.113Z,24.50
2023-10-21T15:41:04.546Z,24.60
2023-10-21T15:43:37.006Z,24.60
2023-10-21T15:46:05.603Z,24.60
2023-10-21T15:48:36.212Z,24.60
2023-10-21T15:51:13.722Z,24.50
2023-10-21T15:53:44.130Z,24.60
2023-10-21T15:56:11.456Z,24.50
2023-10-21T15:58:38.764Z,24.50
2023-10-21T16:01:07.430Z,24.50
2023-10-21T16:03:34.793Z,24.50
2023-10-21T16:06:02.179Z,24.50
2023-10-21T16:08:29.461Z,24.50
2023-10-21T16:11:05.280Z,24.50
2023-10-21T16:13:35.840Z,24.40
2023-10-21T16:16:03.653Z,24.40
2023-10-21T16:18:33.932Z,24.40
2023-10-21T16:21:01.706Z,24.50
2023-10-21T16:23:29.264Z,24.40
2023-10-21T16:25:58.328Z,24.50
2023-10-21T16:28:26.402Z,24.40
2023-10-21T16:30:53.875Z,24.40
2023-10-21T16:33:23.610Z,24.40
2023-10-21T16:35:51.017Z,24.40
2023-10-21T16:38:18.926Z,24.40
2023-10-21T16:40:46.472Z,24.40
2023-10-21T16:43:13.909Z,24.40
2023-10-21T16:45:43.708Z,24.50
2023-10-21T16:48:11.734Z,24.50
2023-10-21T16:50:39.287Z,24.50
2023-10-21T16:53:06.711Z,24.50
2023-10-21T16:55:34.113Z,24.50
2023-10-21T16:58:01.376Z,24.50
2023-10-21T17:00:28.784Z,24.50
2023-10-21T17:02:56.728Z,24.50
2023-10-21T17:05:24.464Z,24.50
2023-10-21T17:07:51.683Z,24.50
2023-10-21T17:10:20.131Z,24.50
2023-10-21T17:12:47.577Z,24.50
2023-10-21T17:15:14.929Z,24.50
2023-10-21T17:17:42.584Z,24.50
2023-10-21T17:20:12.122Z,24.50
2023-10-21T17:22:39.560Z,24.50
2023-10-21T17:25:07.111Z,24.60
2023-10-21T17:27:34.566Z,24.60
2023-10-21T17:30:01.922Z,24.60
2023-10-21T17:32:32.069Z,24.60
2023-10-21T17:34:59.327Z,24.60
2023-10-21T17:37:26.716Z,24.50
2023-10-21T17:39:54.201Z,24.40
2023-10-21T17:42:21.725Z,24.30
2023-10-21T17:44:48.984Z,24.30
2023-10-21T17:47:16.281Z,24.20
2023-10-21T17:49:43.817Z,24.20
2023-10-21T17:52:11.299Z,24.20
2023-10-21T17:54:38.982Z,24.20
2023-10-21T17:57:06.668Z,24.30
2023-10-21T17:59:34.105Z,24.50
2023-10-21T18:02:01.465Z,24.50
2023-10-21T18:04:31.071Z,24.00
2023-10-21T18:06:58.793Z,23.50
2023-10-21T18:09:26.181Z,23.20
2023-10-21T18:11:53.686Z,23.00
2023-10-21T18:14:21.069Z,22.80
2023-10-21T18:16:48.363Z,22.70
2023-10-21T18:19:15.868Z,22.70
2023-10-21T18:21:43.214Z,22.70
2023-10-21T18:24:11.032Z,22.70
2023-10-21T18:26:38.758Z,22.70
2023-10-21T18:29:06.153Z,22.60
2023-10-21T18:31:33.817Z,22.60
2023-10-21T18:34:01.344Z,22.60
2023-10-21T18:36:28.756Z,22.50
2023-10-21T18:38:56.051Z,22.60
2023-10-21T18:41:24.054Z,22.50
2023-10-21T18:43:51.957Z,22.50
2023-10-21T18:46:19.582Z,22.50
2023-10-21T18:48:47.391Z,22.50
2023-10-21T18:51:23.301Z,22.50
2023-10-21T18:53:51.665Z,22.50
2023-10-21T18:56:20.197Z,22.50
2023-10-21T18:58:47.542Z,22.50
2023-10-21T19:01:15.063Z,22.50
2023-10-21T19:03:43.116Z,22.50
2023-10-21T19:06:10.792Z,22.50
2023-10-21T19:08:38.060Z,22.50
2023-10-21T19:11:05.371Z,22.40
2023-10-21T19:13:32.705Z,22.40
2023-10-21T19:16:00.034Z,22.30
2023-10-21T19:18:28.102Z,22.30
2023-10-21T19:20:55.682Z,22.30
2023-10-21T19:23:23.246Z,22.40
2023-10-21T19:25:50.531Z,22.50
2023-10-21T19:28:19.403Z,22.50
2023-10-21T19:30:47.519Z,22.30
2023-10-21T19:33:15.075Z,22.20
2023-10-21T19:35:42.593Z,22.20
2023-10-21T19:38:09.952Z,22.20
2023-10-21T19:40:40.376Z,22.20
2023-10-21T19:43:08.313Z,22.20
2023-10-21T19:45:41.782Z,22.30
2023-10-21T19:48:09.363Z,22.30
2023-10-21T19:50:41.308Z,22.20
2023-10-21T19:53:09.515Z,22.30
2023-10-21T19:55:37.951Z,22.30
2023-10-21T19:58:06.088Z,22.20
2023-10-21T20:00:34.491Z,22.30
2023-10-21T20:03:02.748Z,22.30
2023-10-21T20:05:31.071Z,22.30
2023-10-21T20:07:58.570Z,22.30
2023-10-21T20:10:26.176Z,22.30
2023-10-21T20:12:53.798Z,22.30
2023-10-21T20:15:22.315Z,22.30
2023-10-21T20:17:49.881Z,22.40
2023-10-21T20:20:17.258Z,22.50
2023-10-21T20:22:44.717Z,22.50
2023-10-21T20:25:12.216Z,22.50
2023-10-21T20:27:40.090Z,22.40
2023-10-21T20:30:08.054Z,22.40
2023-10-21T20:32:35.391Z,22.20
2023-10-21T20:35:02.892Z,22.10
2023-10-21T20:37:32.573Z,22.00
2023-10-21T20:40:00.172Z,21.90
2023-10-21T20:42:27.715Z,21.90
2023-10-21T20:44:55.389Z,21.90
2023-10-21T20:47:22.822Z,21.90
2023-10-21T20:49:50.203Z,21.90
2023-10-21T20:52:17.517Z,21.90
2023-10-21T20:54:45.578Z,22.00
2023-10-21T20:57:13.629Z,22.00
2023-10-21T20:59:41.142Z,22.00
2023-10-21T21:02:08.515Z,21.90
2023-10-21T21:04:35.815Z,21.80
2023-10-21T21:07:04.764Z,21.70
2023-10-21T21:09:32.277Z,21.60
2023-10-21T21:11:59.591Z,21.60
2023-10-21T21:14:26.887Z,21.60
2023-10-21T21:16:54.054Z,21.60
2023-10-21T21:19:21.300Z,21.60
2023-10-21T21:21:49.929Z,21.60
2023-10-21T21:24:17.437Z,21.50
2023-10-21T21:26:45.612Z,21.50
2023-10-21T21:29:12.885Z,21.40
2023-10-21T21:31:40.267Z,21.40
2023-10-21T21:34:07.530Z,21.40
2023-10-21T21:36:35.821Z,21.40
2023-10-21T21:39:03.174Z,21.40
2023-10-21T21:41:30.457Z,21.40
2023-10-21T21:43:57.708Z,21.40
2023-10-21T21:46:25.096Z,21.30
2023-10-21T21:48:52.453Z,21.30
2023-10-21T21:51:20.081Z,21.30
2023-10-21T21:53:47.383Z,21.30
2023-10-21T21:56:14.597Z,21.40
2023-10-21T21:58:41.847Z,21.40
2023-10-21T22:01:09.093Z,21.40
2023-10-21T22:03:36.581Z,21.40
2023-10-21T22:06:05.458Z,21.40
2023-10-21T22:08:34.949Z,21.50
2023-10-21T22:11:03.931Z,21.50
2023-10-21T22:13:31.541Z,21.50
2023-10-21T22:16:02.066Z,21.50
2023-10-21T22:18:30.101Z,21.50
2023-10-21T22:20:58.225Z,21.60
2023-10-21T22:23:29.132Z,21.70
2023-10-21T22:25:56.713Z,21.70
2023-10-21T22:28:24.315Z,21.70
2023-10-21T22:30:54.141Z,21.70
2023-10-21T22:33:21.727Z,21.60
2023-10-21T22:35:50.482Z,21.60
2023-10-21T22:38:17.736Z,21.40
2023-10-21T22:40:46.452Z,21.40
2023-10-21T22:43:14.069Z,21.40
2023-10-21T22:45:42.029Z,21.40
2023-10-21T22:48:10.020Z,21.30
2023-10-21T22:50:40.389Z,21.30
2023-10-21T22:53:07.831Z,21.30
2023-10-21T22:55:36.459Z,21.30
2023-10-21T22:58:04.370Z,21.40
2023-10-21T23:00:31.916Z,21.40
2023-10-21T23:03:02.599Z,21.40
2023-10-21T23:05:33.482Z,21.40
2023-10-21T23:08:06.145Z,21.40
2023-10-21T23:10:34.979Z,21.40
2023-10-21T23:13:02.695Z,21.40
2023-10-21T23:15:41.653Z,21.40
2023-10-21T23:18:09.235Z,21.30
2023-10-21T23:20:45.115Z,21.40
2023-10-21T23:23:13.107Z,21.40
2023-10-21T23:25:40.720Z,21.40
2023-10-21T23:28:10.191Z,21.40
2023-10-21T23:30:37.586Z,21.40
2023-10-21T23:33:04.965Z,21.40
2023-10-21T23:35:32.335Z,21.40
2023-10-21T23:37:59.849Z,21.40
2023-10-21T23:40:27.149Z,21.40
2023-10-21T23:42:56.522Z,21.40
2023-10-21T23:45:23.859Z,21.40
2023-10-21T23:47:51.288Z,21.40
2023-10-21T23:50:19.500Z,21.40
2023-10-21T23:52:47.058Z,21.30
2023-10-21T23:55:15.328Z,21.30
2023-10-21T23:57:42.976Z,21.30
